Time;durP1;ratioP1;P1;durP2;ratioP2;P2;SDS_P1;SDS_P2;PMS_P1;PMS_P2;Temp;Humidity;BMP_temperature;BMP_pressure;BME280_temperature;BME280_humidity;BME280_pressure;Samples;Min_cycle;Max_cycle;Signal;HPM_P1;HPM_P2
2022/04/20 00:00:51;;;;;;;34.08;23.65;;;4.50;99.90;;;;;;5025550;28;20206;-49
2022/04/20 00:03:18;;;;;;;31.60;24.20;;;4.50;99.90;;;;;;5024881;28;20496;-50
2022/04/20 00:05:46;;;;;;;31.75;22.38;;;4.60;99.90;;;;;;4998609;28;787236;-49
2022/04/20 00:08:13;;;;;;;27.00;21.35;;;4.60;99.90;;;;;;5042614;28;20448;-51
2022/04/20 00:10:41;;;;;;;31.80;22.08;;;4.60;99.90;;;;;;5027789;28;20203;-53
2022/04/20 00:13:08;;;;;;;33.85;23.63;;;4.60;99.90;;;;;;5029022;28;20204;-48
2022/04/20 00:15:38;;;;;;;37.55;24.00;;;4.70;99.90;;;;;;5025672;28;20258;-49
2022/04/20 00:18:05;;;;;;;26.20;21.60;;;4.70;99.90;;;;;;5028617;28;20443;-49
2022/04/20 00:20:32;;;;;;;32.20;22.98;;;4.60;99.90;;;;;;5025424;28;20502;-49
2022/04/20 00:23:00;;;;;;;27.60;21.25;;;4.70;99.90;;;;;;5028004;28;20208;-49
2022/04/20 00:25:27;;;;;;;29.10;23.70;;;4.80;99.90;;;;;;5028353;28;20199;-49
2022/04/20 00:27:54;;;;;;;39.60;27.08;;;4.70;99.90;;;;;;5030226;28;20198;-49
2022/04/20 00:30:21;;;;;;;32.97;22.88;;;4.60;99.90;;;;;;5025307;28;20221;-48
2022/04/20 00:32:52;;;;;;;31.08;25.42;;;4.70;99.90;;;;;;5026253;28;20408;-47
2022/04/20 00:35:19;;;;;;;34.05;24.88;;;4.80;99.90;;;;;;5026444;28;20303;-46
2022/04/20 00:37:47;;;;;;;32.67;24.40;;;4.80;99.90;;;;;;5025180;28;20200;-49
2022/04/20 00:40:14;;;;;;;33.97;22.25;;;4.80;99.90;;;;;;5028577;28;20493;-48
2022/04/20 00:42:42;;;;;;;30.55;23.08;;;4.80;99.90;;;;;;5026190;28;20208;-49
2022/04/20 00:45:11;;;;;;;34.88;25.00;;;4.60;99.90;;;;;;5028535;28;20216;-49
2022/04/20 00:47:44;;;;;;;30.65;21.88;;;4.80;99.90;;;;;;5025444;28;20204;-52
2022/04/20 00:50:12;;;;;;;35.90;24.40;;;4.90;99.90;;;;;;5028794;28;20208;-48
2022/04/20 00:52:40;;;;;;;34.03;22.58;;;5.00;99.90;;;;;;5025506;28;20232;-49
2022/04/20 00:55:27;;;;;;;34.67;22.83;;;4.90;99.90;;;;;;5025665;28;20515;-48
2022/04/20 00:57:55;;;;;;;27.42;19.92;;;5.00;99.90;;;;;;5030253;28;20211;-48
2022/04/20 01:00:22;;;;;;;36.10;21.27;;;5.00;99.90;;;;;;5027139;28;20199;-52
2022/04/20 01:02:50;;;;;;;32.22;21.80;;;5.00;99.90;;;;;;5025746;28;20201;-48
2022/04/20 01:05:18;;;;;;;23.88;19.60;;;4.90;99.90;;;;;;5028312;28;20542;-48
2022/04/20 01:07:46;;;;;;;28.70;21.17;;;4.80;99.90;;;;;;5022686;28;20211;-49
2022/04/20 01:10:13;;;;;;;30.75;19.70;;;4.90;99.90;;;;;;5031050;28;20215;-48
2022/04/20 01:12:44;;;;;;;23.25;19.85;;;4.70;99.90;;;;;;5028378;28;20481;-49
2022/04/20 01:15:12;;;;;;;24.15;18.05;;;4.80;99.90;;;;;;5030418;28;20475;-50
2022/04/20 01:17:43;;;;;;;27.85;19.98;;;4.80;99.90;;;;;;5027969;28;20215;-51
2022/04/20 01:20:17;;;;;;;28.67;19.98;;;4.90;99.90;;;;;;5029890;28;20200;-49
2022/04/20 01:22:45;;;;;;;32.22;22.08;;;4.80;99.90;;;;;;5025645;28;20207;-48
2022/04/20 01:25:13;;;;;;;27.10;20.02;;;4.80;99.90;;;;;;5027638;28;20204;-49
2022/04/20 01:27:43;;;;;;;31.08;19.00;;;4.70;99.90;;;;;;5025148;28;20215;-49
2022/04/20 01:30:11;;;;;;;31.92;20.90;;;4.70;99.90;;;;;;5028293;28;20249;-47
2022/04/20 01:32:38;;;;;;;24.23;18.98;;;4.80;99.90;;;;;;5025619;28;20479;-49
2022/04/20 01:35:06;;;;;;;28.17;18.75;;;4.70;99.90;;;;;;5025601;28;20401;-47
2022/04/20 01:37:34;;;;;;;32.08;21.02;;;4.60;99.90;;;;;;5025618;28;20262;-49
2022/04/20 01:40:00;;;;;;;23.30;18.92;;;4.50;99.90;;;;;;5027824;28;20227;-49
2022/04/20 01:42:28;;;;;;;28.63;19.52;;;4.40;99.90;;;;;;5028194;28;20202;-49
2022/04/20 01:44:55;;;;;;;27.88;19.13;;;4.50;99.90;;;;;;5028130;28;20451;-46
2022/04/20 01:47:26;;;;;;;27.98;18.85;;;4.50;99.90;;;;;;5026645;28;20201;-49
2022/04/20 01:49:53;;;;;;;26.65;19.25;;;4.40;99.90;;;;;;5025612;28;20557;-48
2022/04/20 01:52:20;;;;;;;24.95;17.40;;;4.30;99.90;;;;;;5030083;28;20427;-50
2022/04/20 01:54:47;;;;;;;38.13;20.08;;;4.20;99.90;;;;;;5028838;28;20203;-48
2022/04/20 01:57:14;;;;;;;28.73;18.52;;;4.30;99.90;;;;;;5027940;28;20504;-48
2022/04/20 01:59:42;;;;;;;25.95;18.65;;;4.20;99.90;;;;;;5026617;28;20313;-50
2022/04/20 02:04:55;;;;;;;26.63;20.38;;;4.20;99.90;;;;;;5025867;28;20211;-50
2022/04/20 02:07:22;;;;;;;27.48;20.13;;;4.50;99.90;;;;;;5026616;28;20462;-48
2022/04/20 02:09:49;;;;;;;29.90;17.33;;;4.50;99.90;;;;;;5025376;28;20215;-50
2022/04/20 02:12:16;;;;;;;27.65;20.02;;;4.50;99.90;;;;;;5027801;28;20401;-49
2022/04/20 02:14:44;;;;;;;27.20;19.52;;;4.40;99.90;;;;;;5024869;28;20391;-49
2022/04/20 02:17:11;;;;;;;26.20;18.35;;;4.40;99.90;;;;;;5027834;28;20354;-51
2022/04/20 02:19:38;;;;;;;28.27;19.55;;;4.30;99.90;;;;;;5024646;28;20552;-50
2022/04/20 02:22:08;;;;;;;30.83;19.88;;;4.20;99.90;;;;;;5028189;28;20203;-49
2022/04/20 02:24:35;;;;;;;26.88;18.30;;;4.10;99.90;;;;;;5024456;28;20250;-50
2022/04/20 02:27:02;;;;;;;23.65;19.23;;;4.10;99.90;;;;;;5029194;28;20507;-49
2022/04/20 02:29:29;;;;;;;24.65;19.38;;;4.00;99.90;;;;;;5029572;28;20215;-49
2022/04/20 02:31:56;;;;;;;24.23;19.75;;;4.00;99.90;;;;;;5025130;28;20469;-49
2022/04/20 02:34:24;;;;;;;27.35;21.40;;;4.00;99.90;;;;;;5026132;28;20215;-48
2022/04/20 02:36:51;;;;;;;29.85;19.90;;;4.00;99.90;;;;;;5024983;28;20215;-51
2022/04/20 02:39:19;;;;;;;28.85;19.70;;;4.30;99.90;;;;;;5024698;28;20340;-50
2022/04/20 02:41:47;;;;;;;31.13;21.25;;;4.10;99.90;;;;;;5027277;28;20242;-50
2022/04/20 02:44:14;;;;;;;29.88;20.40;;;4.20;99.90;;;;;;5027907;28;20269;-49
2022/04/20 02:46:43;;;;;;;27.42;19.33;;;4.30;99.90;;;;;;5024798;28;20245;-51
2022/04/20 02:49:10;;;;;;;31.08;21.60;;;4.40;99.90;;;;;;5028102;28;20228;-48
2022/04/20 02:51:38;;;;;;;29.60;20.80;;;4.70;99.90;;;;;;5024688;28;20238;-47
2022/04/20 02:54:05;;;;;;;27.27;20.77;;;4.60;99.90;;;;;;5030675;28;20222;-48
2022/04/20 02:56:32;;;;;;;26.85;18.50;;;4.50;99.90;;;;;;5025746;28;20514;-48
2022/04/20 02:58:59;;;;;;;25.27;18.27;;;4.40;99.90;;;;;;5029413;28;20230;-47
2022/04/20 03:01:28;;;;;;;27.52;19.13;;;4.40;99.90;;;;;;5029241;28;20526;-49
2022/04/20 03:03:55;;;;;;;29.50;21.65;;;4.30;99.90;;;;;;5029731;28;20527;-49
2022/04/20 03:06:22;;;;;;;30.90;20.23;;;4.30;99.90;;;;;;5030571;28;20206;-47
2022/04/20 03:08:50;;;;;;;29.80;19.40;;;4.50;99.90;;;;;;5028606;28;20222;-48
2022/04/20 03:11:17;;;;;;;26.00;19.88;;;4.70;99.90;;;;;;5031782;28;20212;-47
2022/04/20 03:13:44;;;;;;;27.63;17.55;;;4.60;99.90;;;;;;5025438;28;20572;-48
2022/04/20 03:16:13;;;;;;;32.90;19.92;;;4.70;99.90;;;;;;5031766;28;20271;-48
2022/04/20 03:18:41;;;;;;;28.55;20.00;;;4.80;99.90;;;;;;5031106;28;20224;-49
2022/04/20 03:21:08;;;;;;;25.10;17.27;;;4.80;99.90;;;;;;5032002;28;20199;-49
2022/04/20 03:23:36;;;;;;;25.88;19.05;;;5.00;99.90;;;;;;5027882;28;20224;-51
2022/04/20 03:26:04;;;;;;;23.08;18.30;;;4.80;99.90;;;;;;5031041;28;20211;-49
2022/04/20 03:28:31;;;;;;;30.35;17.33;;;4.60;99.90;;;;;;5028252;28;20515;-48
2022/04/20 03:30:59;;;;;;;27.17;19.20;;;4.60;99.90;;;;;;5030127;28;20206;-48
2022/04/20 03:33:27;;;;;;;26.77;18.45;;;4.80;99.90;;;;;;5031650;28;20657;-49
2022/04/20 03:35:54;;;;;;;21.27;16.08;;;4.90;99.90;;;;;;5033586;28;20207;-50
2022/04/20 03:38:21;;;;;;;25.60;16.77;;;4.70;99.90;;;;;;5033213;28;20341;-48
2022/04/20 03:40:52;;;;;;;21.95;16.17;;;4.60;99.90;;;;;;5027941;28;20523;-49
2022/04/20 03:43:23;;;;;;;22.55;17.27;;;4.60;99.90;;;;;;5027705;28;20225;-49
2022/04/20 03:45:50;;;;;;;21.05;16.88;;;4.80;99.90;;;;;;5027792;28;20323;-50
2022/04/20 03:48:18;;;;;;;22.83;17.25;;;4.60;99.90;;;;;;5028084;28;20249;-52
2022/04/20 03:50:46;;;;;;;24.80;17.52;;;4.70;99.90;;;;;;5028214;28;20410;-49
2022/04/20 03:53:13;;;;;;;21.48;16.90;;;4.70;99.90;;;;;;5031322;28;20280;-49
2022/04/20 03:55:40;;;;;;;23.02;17.88;;;4.80;99.90;;;;;;5027902;28;20208;-50
2022/04/20 03:58:08;;;;;;;23.33;19.25;;;4.80;99.90;;;;;;5032798;28;20277;-52
2022/04/20 04:00:35;;;;;;;20.08;17.60;;;4.90;99.90;;;;;;5032684;28;20208;-51
2022/04/20 04:03:02;;;;;;;26.42;19.88;;;5.00;99.90;;;;;;5035574;28;20216;-51
2022/04/20 04:05:30;;;;;;;20.35;16.85;;;5.00;99.90;;;;;;5030162;28;20212;-49
2022/04/20 04:07:57;;;;;;;21.65;15.93;;;5.30;99.90;;;;;;5029239;28;20308;-52
2022/04/20 04:10:24;;;;;;;25.85;18.73;;;5.50;99.90;;;;;;5034846;28;20206;-48
2022/04/20 04:12:55;;;;;;;23.85;16.75;;;5.60;99.90;;;;;;5029510;28;20232;-51
2022/04/20 04:15:22;;;;;;;22.15;15.40;;;5.50;99.90;;;;;;5028950;28;20195;-49
2022/04/20 04:17:54;;;;;;;20.92;16.60;;;5.60;99.90;;;;;;5027516;28;20526;-49
2022/04/20 04:20:21;;;;;;;26.13;15.80;;;5.70;99.90;;;;;;5027920;28;20263;-50
2022/04/20 04:22:52;;;;;;;28.05;18.25;;;5.50;99.90;;;;;;5027364;28;20527;-51
2022/04/20 04:25:19;;;;;;;24.05;16.67;;;5.60;99.90;;;;;;5027801;28;20199;-50
2022/04/20 04:27:47;;;;;;;24.52;17.05;;;5.80;99.90;;;;;;5027607;28;20220;-50
2022/04/20 04:30:14;;;;;;;24.73;17.88;;;5.80;99.90;;;;;;5031048;28;20248;-49
2022/04/20 04:32:42;;;;;;;24.98;17.30;;;6.00;99.90;;;;;;5028054;28;20217;-50
2022/04/20 04:35:09;;;;;;;20.63;15.35;;;6.00;99.90;;;;;;5034529;28;20219;-49
2022/04/20 04:37:37;;;;;;;18.33;13.45;;;6.10;99.90;;;;;;5027513;28;20399;-48
2022/04/20 04:40:05;;;;;;;16.17;13.98;;;6.10;99.90;;;;;;5033231;28;20221;-50
2022/04/20 04:42:32;;;;;;;20.15;14.65;;;6.00;99.90;;;;;;5027243;28;20207;-48
2022/04/20 04:48:36;;;;;;;21.67;14.23;;;5.90;99.90;;;;;;5041173;28;20207;-48
2022/04/20 04:50:37;;;;;;;15.95;13.70;;;5.50;99.90;;;;;;5036582;28;20236;-51
2022/04/20 04:53:04;;;;;;;22.17;16.73;;;5.40;99.90;;;;;;5048877;28;20247;-49
2022/04/20 04:55:35;;;;;;;23.45;16.85;;;5.30;99.90;;;;;;5060662;28;20552;-51
2022/04/20 04:58:02;;;;;;;21.05;16.63;;;5.50;99.90;;;;;;5060922;28;20241;-48
2022/04/20 05:00:29;;;;;;;19.45;14.90;;;5.50;99.90;;;;;;5060369;28;20241;-51
2022/04/20 05:02:56;;;;;;;21.33;15.80;;;5.60;99.90;;;;;;5060753;28;20203;-49
2022/04/20 05:05:24;;;;;;;20.02;15.07;;;5.60;99.90;;;;;;5060519;28;20202;-50
2022/04/20 05:07:54;;;;;;;15.57;13.95;;;5.60;99.90;;;;;;5060631;28;20209;-48
2022/04/20 05:10:24;;;;;;;18.85;14.80;;;5.50;99.90;;;;;;5059753;28;20199;-50
2022/04/20 05:12:52;;;;;;;22.27;16.02;;;5.50;99.90;;;;;;5061541;28;20229;-47
2022/04/20 05:15:19;;;;;;;30.73;16.80;;;5.50;99.90;;;;;;5060532;28;20204;-47
2022/04/20 05:17:47;;;;;;;18.98;15.13;;;5.60;99.90;;;;;;5060285;28;20207;-47
2022/04/20 05:20:14;;;;;;;31.10;17.17;;;5.60;99.90;;;;;;5042739;28;20581;-48
2022/04/20 05:22:41;;;;;;;25.85;17.55;;;5.60;99.90;;;;;;5050076;28;20422;-50
2022/04/20 05:25:09;;;;;;;22.13;16.08;;;5.80;99.90;;;;;;5038202;28;20211;-47
2022/04/20 05:27:36;;;;;;;20.25;15.50;;;5.70;99.90;;;;;;5035272;28;20394;-50
2022/04/20 05:30:05;;;;;;;22.50;16.67;;;5.80;99.90;;;;;;5035813;28;20247;-51
2022/04/20 05:32:32;;;;;;;20.10;14.85;;;6.00;99.90;;;;;;5027939;28;20247;-48
2022/04/20 05:35:01;;;;;;;26.98;15.23;;;6.00;99.90;;;;;;5023547;28;20208;-47
2022/04/20 05:43:07;;;;;;;22.67;15.32;;;5.90;99.90;;;;;;5035937;28;20212;-51
2022/04/20 05:45:36;;;;;;;19.67;15.55;;;5.80;99.90;;;;;;5025358;28;20443;-50
2022/04/20 05:48:04;;;;;;;21.70;15.20;;;5.80;99.90;;;;;;5039440;28;20545;-49
2022/04/20 05:50:32;;;;;;;18.85;15.10;;;5.90;99.90;;;;;;5045818;28;20202;-51
2022/04/20 05:53:00;;;;;;;20.08;14.40;;;5.90;99.90;;;;;;5050436;28;20391;-48
2022/04/20 05:55:27;;;;;;;16.83;14.63;;;6.00;99.90;;;;;;5058322;28;20390;-50
2022/04/20 05:57:54;;;;;;;17.92;13.93;;;6.10;99.90;;;;;;5057282;28;20199;-51
2022/04/20 06:00:21;;;;;;;18.48;15.43;;;6.30;99.90;;;;;;5057810;28;20196;-50
2022/04/20 06:02:49;;;;;;;19.25;14.57;;;6.50;99.90;;;;;;5058344;28;20259;-50
2022/04/20 06:05:16;;;;;;;18.20;12.90;;;6.50;99.90;;;;;;5058350;28;20245;-47
2022/04/20 06:07:44;;;;;;;19.52;13.15;;;6.50;99.90;;;;;;5058332;28;20203;-49
2022/04/20 06:10:11;;;;;;;16.65;12.85;;;6.60;99.90;;;;;;5059058;28;20498;-48
2022/04/20 06:12:42;;;;;;;16.80;14.38;;;6.70;99.90;;;;;;5058607;28;20220;-51
2022/04/20 06:15:13;;;;;;;16.95;12.80;;;6.90;99.90;;;;;;5059006;28;20741;-48
2022/04/20 06:17:43;;;;;;;18.60;14.27;;;7.30;99.90;;;;;;5058529;28;20218;-46
2022/04/20 06:20:11;;;;;;;21.42;14.15;;;7.10;99.90;;;;;;5058954;28;20211;-49
2022/04/20 06:22:38;;;;;;;15.40;13.32;;;7.00;99.90;;;;;;5059126;28;20202;-51
2022/04/20 06:25:06;;;;;;;15.13;12.65;;;7.10;99.90;;;;;;5059199;28;20213;-49
2022/04/20 06:27:33;;;;;;;17.50;13.93;;;7.30;99.90;;;;;;5058781;28;20333;-49
2022/04/20 06:30:00;;;;;;;20.38;14.07;;;7.30;99.90;;;;;;5058759;28;20282;-49
2022/04/20 06:32:28;;;;;;;18.90;12.98;;;7.30;99.90;;;;;;5058764;28;20553;-51
2022/04/20 06:34:55;;;;;;;26.50;14.27;;;7.30;99.90;;;;;;5059844;28;20203;-48
2022/04/20 06:37:25;;;;;;;21.85;15.20;;;7.50;99.90;;;;;;5063685;28;20202;-50
2022/04/20 06:39:54;;;;;;;22.40;13.45;;;7.70;99.90;;;;;;5063815;28;20215;-48
2022/04/20 06:42:22;;;;;;;16.25;14.48;;;7.70;99.90;;;;;;5064173;28;20195;-49
2022/04/20 06:44:49;;;;;;;19.92;11.73;;;7.70;99.90;;;;;;5064746;28;20196;-51
2022/04/20 06:47:16;;;;;;;17.17;13.02;;;7.70;99.90;;;;;;5068127;28;20207;-51
2022/04/20 06:49:44;;;;;;;15.48;11.65;;;7.80;99.90;;;;;;5067763;28;20584;-50
2022/04/20 07:00:29;;;;;;;15.50;12.68;;;7.90;99.90;;;;;;5062274;28;20199;-51
2022/04/20 07:03:06;;;;;;;14.27;11.48;;;7.80;99.90;;;;;;5062409;28;20211;-48
2022/04/20 07:05:35;;;;;;;18.27;13.55;;;7.90;99.90;;;;;;5062570;28;20326;-48
2022/04/20 07:08:03;;;;;;;12.15;10.93;;;7.80;99.90;;;;;;5062710;28;20336;-51
2022/04/20 07:10:31;;;;;;;16.60;12.23;;;7.80;99.90;;;;;;5062205;28;20199;-50
2022/04/20 07:12:59;;;;;;;15.18;11.43;;;7.90;99.90;;;;;;5061634;28;20219;-49
2022/04/20 07:15:26;;;;;;;21.10;12.73;;;8.00;99.90;;;;;;5060571;28;20195;-51
2022/04/20 07:17:53;;;;;;;19.00;11.65;;;7.90;99.90;;;;;;5061071;28;20199;-52
2022/04/20 07:20:20;;;;;;;15.43;12.18;;;8.00;99.90;;;;;;5060754;28;20266;-49
2022/04/20 07:22:49;;;;;;;15.20;13.73;;;8.00;99.90;;;;;;5061487;28;20223;-49
2022/04/20 07:25:17;;;;;;;16.77;12.55;;;7.80;99.90;;;;;;5042969;28;20210;-50
2022/04/20 07:27:48;;;;;;;16.20;11.57;;;7.80;99.90;;;;;;5061062;28;20214;-50
2022/04/20 07:30:16;;;;;;;18.50;14.07;;;7.70;99.90;;;;;;5060161;28;20207;-50
2022/04/20 07:32:48;;;;;;;18.67;13.18;;;7.70;99.90;;;;;;5059882;28;20247;-49
2022/04/20 07:35:16;;;;;;;15.18;11.55;;;7.80;99.90;;;;;;5060854;28;20196;-49
2022/04/20 07:37:43;;;;;;;19.65;12.77;;;7.90;99.90;;;;;;5060966;28;20245;-48
2022/04/20 07:40:12;;;;;;;20.52;13.07;;;8.00;99.90;;;;;;5061295;28;20223;-52
2022/04/20 07:42:40;;;;;;;17.73;13.27;;;8.20;99.90;;;;;;5060975;28;20202;-49
2022/04/20 07:45:08;;;;;;;16.48;11.93;;;8.40;99.90;;;;;;5060941;28;20268;-47
2022/04/20 07:47:36;;;;;;;15.73;12.90;;;8.50;99.90;;;;;;5059069;28;20195;-48
2022/04/20 07:50:19;;;;;;;21.60;12.20;;;8.40;99.90;;;;;;5060065;28;20247;-52
2022/04/20 07:52:50;;;;;;;14.93;12.18;;;8.40;99.90;;;;;;5060010;28;20215;-47
2022/04/20 07:55:20;;;;;;;15.55;10.75;;;8.50;99.90;;;;;;5060635;28;20193;-50
2022/04/20 07:57:49;;;;;;;14.48;10.98;;;8.40;99.90;;;;;;5060743;28;20211;-48
2022/04/20 08:00:16;;;;;;;11.75;10.10;;;8.30;99.90;;;;;;5061130;28;20196;-51
2022/04/20 08:02:45;;;;;;;12.35;11.00;;;8.20;99.90;;;;;;5061043;28;20356;-49
2022/04/20 08:05:14;;;;;;;11.20;9.77;;;8.10;99.90;;;;;;5060693;28;20202;-48
2022/04/20 08:07:46;;;;;;;15.57;11.75;;;8.20;99.90;;;;;;5060955;28;20207;-51
2022/04/20 08:10:13;;;;;;;14.63;10.43;;;8.40;99.90;;;;;;5060958;28;20233;-49
2022/04/20 08:12:44;;;;;;;13.77;9.90;;;8.30;99.90;;;;;;5060469;28;20262;-50
2022/04/20 08:15:12;;;;;;;12.93;10.10;;;8.40;99.90;;;;;;5060294;28;20432;-50
2022/04/20 08:17:39;;;;;;;12.35;10.45;;;8.50;99.90;;;;;;5060063;28;20226;-48
2022/04/20 08:20:08;;;;;;;12.70;10.35;;;8.60;99.90;;;;;;5058825;28;20227;-51
2022/04/20 08:22:43;;;;;;;13.40;11.07;;;8.60;99.90;;;;;;5060383;28;20223;-51
2022/04/20 08:25:12;;;;;;;14.25;10.30;;;8.80;99.90;;;;;;5049398;28;20254;-48
2022/04/20 08:27:40;;;;;;;14.63;11.18;;;8.80;99.90;;;;;;5040805;28;20381;-49
2022/04/20 08:30:08;;;;;;;13.18;9.90;;;9.00;99.90;;;;;;5040195;28;20280;-50
2022/04/20 08:32:37;;;;;;;15.82;10.90;;;9.20;99.90;;;;;;5039782;28;20522;-52
2022/04/20 08:35:05;;;;;;;12.73;9.07;;;9.60;99.90;;;;;;5039319;28;20200;-53
2022/04/20 08:37:32;;;;;;;11.48;10.18;;;9.80;99.90;;;;;;5039045;28;20206;-51
2022/04/20 08:39:59;;;;;;;10.35;9.23;;;10.00;99.90;;;;;;5039335;28;20260;-50
2022/04/20 08:42:30;;;;;;;16.40;11.02;;;10.30;99.90;;;;;;5039323;28;20230;-49
2022/04/20 08:45:02;;;;;;;12.52;10.73;;;10.50;99.90;;;;;;5037940;28;20213;-49
2022/04/20 08:47:36;;;;;;;17.98;12.25;;;10.60;99.90;;;;;;5039757;28;20272;-50
2022/04/20 08:50:06;;;;;;;13.27;10.98;;;10.70;99.90;;;;;;5039419;28;20228;-47
2022/04/20 08:52:39;;;;;;;13.45;10.23;;;10.60;99.90;;;;;;5039589;28;20204;-47
2022/04/20 08:55:16;;;;;;;11.32;9.57;;;10.50;99.90;;;;;;5037999;28;20280;-48
2022/04/20 08:57:45;;;;;;;15.00;11.35;;;10.30;99.90;;;;;;5038839;28;20502;-49
2022/04/20 09:00:21;;;;;;;10.15;8.43;;;10.30;99.90;;;;;;5039206;28;20199;-47
2022/04/20 09:02:57;;;;;;;12.57;10.05;;;10.40;99.90;;;;;;5039207;28;20237;-51
2022/04/20 09:05:30;;;;;;;10.20;9.10;;;10.10;99.90;;;;;;5039795;28;20204;-48
2022/04/20 09:07:58;;;;;;;10.50;7.70;;;9.60;99.90;;;;;;5039532;28;20205;-49
2022/04/20 09:10:27;;;;;;;18.17;8.50;;;9.10;99.90;;;;;;5039127;28;20286;-49
2022/04/20 09:13:06;;;;;;;12.88;9.23;;;9.00;99.90;;;;;;5040886;28;20197;-50
2022/04/20 09:15:35;;;;;;;10.75;9.65;;;9.00;99.90;;;;;;5039354;28;20398;-49
2022/04/20 09:18:06;;;;;;;11.38;10.27;;;8.60;99.90;;;;;;5041632;28;20225;-48
2022/04/20 09:20:35;;;;;;;11.98;9.77;;;8.40;99.90;;;;;;5040783;28;20282;-49
2022/04/20 09:23:08;;;;;;;14.45;9.77;;;8.50;99.90;;;;;;5039598;28;20272;-51
2022/04/20 09:25:49;;;;;;;9.75;8.80;;;8.40;99.90;;;;;;5039955;28;20415;-49
2022/04/20 09:28:16;;;;;;;13.13;10.82;;;8.40;99.90;;;;;;5038791;28;20220;-49
2022/04/20 09:30:48;;;;;;;14.60;8.77;;;8.60;99.90;;;;;;5039275;28;20205;-50
2022/04/20 09:33:15;;;;;;;10.30;8.95;;;8.70;99.90;;;;;;5040090;28;20385;-47
2022/04/20 09:35:47;;;;;;;10.40;9.30;;;9.00;99.90;;;;;;5046690;28;20201;-51
2022/04/20 09:38:21;;;;;;;12.45;9.70;;;9.20;99.90;;;;;;5042657;28;20227;-50
2022/04/20 09:40:52;;;;;;;20.10;11.77;;;9.40;99.90;;;;;;5039816;28;20200;-50
2022/04/20 09:43:23;;;;;;;13.20;10.80;;;9.50;99.90;;;;;;5038523;28;20211;-52
2022/04/20 09:49:04;;;;;;;10.73;9.63;;;9.80;99.90;;;;;;5038712;28;20265;-49
2022/04/20 09:51:36;;;;;;;13.60;10.73;;;9.80;99.90;;;;;;5037054;28;20274;-52
2022/04/20 09:54:04;;;;;;;12.75;10.20;;;9.70;99.90;;;;;;5038765;28;20550;-49
2022/04/20 09:56:32;;;;;;;13.98;10.13;;;9.70;99.90;;;;;;5038528;28;20198;-48
2022/04/20 09:59:04;;;;;;;11.45;10.30;;;9.60;99.90;;;;;;5039151;28;20296;-50
2022/04/20 10:01:36;;;;;;;10.77;9.55;;;9.50;99.90;;;;;;5038906;28;20204;-51
2022/04/20 10:04:05;;;;;;;9.77;8.77;;;9.20;99.90;;;;;;5037285;28;20267;-51
2022/04/20 10:06:34;;;;;;;12.52;10.05;;;9.10;99.90;;;;;;5038316;28;20212;-53
2022/04/20 10:09:01;;;;;;;11.60;9.73;;;9.10;99.90;;;;;;5039403;28;20221;-51
2022/04/20 10:11:31;;;;;;;11.38;10.18;;;9.30;99.90;;;;;;5042072;28;20232;-51
2022/04/20 10:16:54;;;;;;;10.27;9.25;;;9.50;99.90;;;;;;5043107;28;20205;-51
2022/04/20 10:19:27;;;;;;;10.93;9.82;;;9.50;99.90;;;;;;5042021;28;20224;-52
2022/04/20 10:21:55;;;;;;;11.60;10.40;;;9.30;99.90;;;;;;5042050;28;20197;-50
2022/04/20 10:24:29;;;;;;;13.10;11.60;;;9.10;99.90;;;;;;5041876;28;20207;-50
2022/04/20 10:27:09;;;;;;;13.75;11.40;;;8.90;99.90;;;;;;5042235;28;20284;-52
2022/04/20 10:29:52;;;;;;;14.05;11.70;;;8.70;99.90;;;;;;5041872;28;20239;-51
2022/04/20 10:32:24;;;;;;;12.02;10.20;;;8.50;99.90;;;;;;5040881;28;20227;-51
2022/04/20 10:34:56;;;;;;;12.90;10.82;;;8.50;99.90;;;;;;5041905;28;20288;-51
2022/04/20 10:37:25;;;;;;;11.55;10.20;;;8.50;99.90;;;;;;5040805;28;20211;-52
2022/04/20 10:39:53;;;;;;;12.23;11.13;;;8.50;99.90;;;;;;5041801;28;20223;-54
2022/04/20 10:42:21;;;;;;;13.13;11.43;;;8.40;99.90;;;;;;5041538;28;20196;-50
2022/04/20 10:44:55;;;;;;;16.23;11.88;;;8.30;99.90;;;;;;5041721;28;20208;-51
2022/04/20 10:47:34;;;;;;;17.83;11.75;;;8.30;99.90;;;;;;5041043;28;20218;-50
2022/04/20 10:50:17;;;;;;;13.40;12.10;;;8.30;99.90;;;;;;5043244;28;20224;-54
2022/04/20 10:52:53;;;;;;;14.40;11.18;;;8.40;99.90;;;;;;5042009;28;20200;-53
2022/04/20 10:55:35;;;;;;;8.77;6.95;;;8.50;99.90;;;;;;5042220;28;20254;-51
2022/04/20 10:58:04;;;;;;;9.95;7.43;;;8.60;99.90;;;;;;5041954;28;20258;-51
2022/04/20 11:00:37;;;;;;;7.65;6.45;;;8.40;99.90;;;;;;5041649;28;20223;-53
2022/04/20 11:03:06;;;;;;;5.78;5.07;;;8.10;99.90;;;;;;5042994;28;20511;-54
2022/04/20 11:05:55;;;;;;;5.22;4.32;;;7.80;99.90;;;;;;5044110;28;20403;-54
2022/04/20 11:08:24;;;;;;;4.95;4.45;;;7.70;99.90;;;;;;5041524;28;20304;-50
2022/04/20 11:19:53;;;;;;;6.50;4.93;;;8.00;99.90;;;;;;5040641;28;20231;-50
2022/04/20 11:22:21;;;;;;;6.88;5.47;;;7.80;99.90;;;;;;5040685;28;20303;-52
2022/04/20 11:25:02;;;;;;;6.05;5.45;;;7.80;99.90;;;;;;5041827;28;20204;-54
2022/04/20 11:27:37;;;;;;;7.40;6.70;;;7.90;99.90;;;;;;5042216;28;20392;-51
2022/04/20 11:30:06;;;;;;;12.57;7.10;;;7.90;99.90;;;;;;5040840;28;20224;-53
2022/04/20 11:32:35;;;;;;;5.50;4.47;;;7.80;99.90;;;;;;5041581;28;20562;-51
2022/04/20 11:35:16;;;;;;;7.88;5.78;;;7.90;99.90;;;;;;5041081;28;20232;-52
2022/04/20 11:38:14;;;;;;;4.68;4.25;;;8.00;99.90;;;;;;5040951;28;20204;-52
2022/04/20 11:40:42;;;;;;;6.07;4.30;;;8.10;99.90;;;;;;5041181;28;20196;-50
2022/04/20 11:43:13;;;;;;;4.63;3.80;;;8.10;99.90;;;;;;5040629;28;20203;-53
2022/04/20 11:46:00;;;;;;;4.57;4.18;;;8.20;99.90;;;;;;5041041;28;20203;-51
2022/04/20 11:48:28;;;;;;;7.32;3.95;;;8.10;99.90;;;;;;5040857;28;20255;-52
2022/04/20 11:50:57;;;;;;;7.07;5.65;;;8.00;99.90;;;;;;5041411;28;20267;-50
2022/04/20 11:53:38;;;;;;;5.40;4.22;;;7.90;99.90;;;;;;5041046;28;20200;-52
2022/04/20 11:56:10;;;;;;;3.70;3.40;;;7.90;99.90;;;;;;5041622;28;20196;-51
2022/04/20 11:58:38;;;;;;;5.50;4.70;;;8.00;99.90;;;;;;5041194;28;20220;-49
2022/04/20 12:01:08;;;;;;;5.60;4.90;;;7.90;99.90;;;;;;5041961;28;20200;-51
2022/04/20 12:03:39;;;;;;;6.30;5.15;;;7.90;99.90;;;;;;5040089;28;20291;-51
2022/04/20 12:06:09;;;;;;;6.88;6.22;;;7.90;99.90;;;;;;5041561;28;20222;-49
2022/04/20 12:08:40;;;;;;;3.88;3.40;;;7.80;99.90;;;;;;5039606;28;20555;-48
2022/04/20 12:11:10;;;;;;;5.20;4.38;;;7.50;99.90;;;;;;5041113;28;20262;-50
2022/04/20 12:13:39;;;;;;;8.70;3.80;;;7.40;99.90;;;;;;5040749;28;20196;-51
2022/04/20 12:16:11;;;;;;;6.07;4.22;;;7.30;99.90;;;;;;5040709;28;20196;-54
2022/04/20 12:18:45;;;;;;;4.32;3.70;;;7.20;99.90;;;;;;5040404;28;20296;-49
2022/04/20 12:21:44;;;;;;;4.90;3.63;;;7.30;99.90;;;;;;5042447;28;20211;-50
2022/04/20 12:24:22;;;;;;;3.00;2.70;;;7.10;99.90;;;;;;5046960;28;20204;-52
2022/04/20 12:26:51;;;;;;;2.50;2.15;;;7.10;99.90;;;;;;5041823;28;20565;-49
2022/04/20 12:29:20;;;;;;;2.25;2.05;;;7.10;99.90;;;;;;5040621;28;20238;-49
2022/04/20 12:31:51;;;;;;;3.10;2.80;;;7.10;99.90;;;;;;5040966;28;20538;-50
2022/04/20 12:34:19;;;;;;;2.33;2.13;;;7.10;99.90;;;;;;5040928;28;20252;-54
2022/04/20 12:37:13;;;;;;;3.80;2.17;;;7.20;99.90;;;;;;5048465;28;20196;-51
2022/04/20 12:39:45;;;;;;;5.22;3.03;;;7.40;99.90;;;;;;5049392;28;20252;-51
2022/04/20 12:42:19;;;;;;;2.60;2.40;;;7.40;99.90;;;;;;5042229;28;20200;-50
2022/04/20 12:44:51;;;;;;;2.53;2.33;;;7.40;99.90;;;;;;5040663;28;20216;-52
2022/04/20 12:47:19;;;;;;;3.85;2.90;;;7.40;99.90;;;;;;5040369;28;20331;-50
2022/04/20 12:50:11;;;;;;;2.28;2.08;;;7.40;99.90;;;;;;5040510;28;20220;-51
2022/04/20 12:52:52;;;;;;;2.35;2.15;;;7.40;99.90;;;;;;5040804;28;20204;-53
2022/04/20 12:55:19;;;;;;;2.60;2.40;;;7.40;99.90;;;;;;5040012;28;20220;-54
2022/04/20 13:02:01;;;;;;;3.55;2.80;;;7.50;99.90;;;;;;5040127;28;20203;-49
2022/04/20 13:03:35;;;;;;;2.25;2.15;;;7.50;99.90;;;;;;5040030;28;20247;-50
2022/04/20 13:06:10;;;;;;;4.25;3.45;;;7.60;99.90;;;;;;5039857;28;20215;-52
2022/04/20 13:08:40;;;;;;;4.00;3.42;;;7.70;99.90;;;;;;5040015;28;20509;-51
2022/04/20 13:11:12;;;;;;;2.72;2.53;;;7.80;99.90;;;;;;5038920;28;20207;-51
2022/04/20 13:14:00;;;;;;;3.40;3.10;;;7.90;99.90;;;;;;5040469;28;20246;-51
2022/04/20 13:16:28;;;;;;;4.30;3.10;;;8.00;99.90;;;;;;5059307;28;20503;-49
2022/04/20 13:18:55;;;;;;;4.90;3.58;;;8.10;99.90;;;;;;5034239;28;20227;-51
2022/04/20 13:21:23;;;;;;;5.55;3.75;;;8.10;99.90;;;;;;5030740;28;20207;-50
2022/04/20 13:23:52;;;;;;;6.35;3.72;;;8.30;99.90;;;;;;5028745;28;20197;-49
2022/04/20 13:29:06;;;;;;;6.93;3.22;;;8.10;99.90;;;;;;5041455;28;20279;-52
2022/04/20 13:31:33;;;;;;;3.70;3.40;;;8.10;99.90;;;;;;5020728;28;20224;-51
2022/04/20 13:34:00;;;;;;;4.70;3.60;;;8.10;99.90;;;;;;5022640;28;20251;-52